ADDS METAR Data INFO
IDs: Format: Raw Decoded Include TAF

Data at: 1905 UTC 23 Apr 2018

KMHS 231856Z AUTO VRB03KT 10SM CLR 19/M02 A3017 RMK AO2 SLP219 T01891017
KMHS 231756Z AUTO VRB06KT 10SM CLR 17/M01 A3019 RMK AO2 SLP226 T01671006 10172 20017 58001
KMHS 231656Z AUTO VRB05KT 10SM CLR 14/M02 A3019 RMK AO2 SLP229 T01441017
KMHS 231556Z AUTO 00000KT 10SM CLR 12/M02 A3019 RMK AO2 SLP230 T01221022
KMHS 231456Z AUTO 07003KT 10SM CLR 08/00 A3019 RMK AO2 SLP235 T00780000 51013
KMHS 231356Z AUTO 00000KT 10SM CLR 02/M01 A3019 RMK AO2 SLP234 T00221011
KMHS 231256Z AUTO 05003KT 10SM CLR 03/M01 A3016 RMK AO2 SLP224 T00281011 $
KMHS 231156Z AUTO 00000KT 10SM CLR 03/M01 A3015 RMK AO2 SLP221 T00281011 10111 20028 53009 $
KMHS 231056Z AUTO 05004KT 10SM CLR 04/M01 A3014 RMK AO2 SLP214 T00391011 $
KMHS 230956Z AUTO 00000KT 10SM CLR 06/M01 A3013 RMK AO2 SLP207 T00611006 $
KMHS 230856Z AUTO 00000KT 10SM CLR 08/M01 A3012 RMK AO2 SLP205 T00831006 52003 $
KMHS 230756Z AUTO 00000KT 10SM CLR 10/M01 A3012 RMK AO2 SLP203 T01001011 402060044 $
KMHS 230656Z AUTO 00000KT 10SM CLR 09/M02 A3011 RMK AO2 SLP202 T00941022 $
KMHS 230556Z AUTO VRB04KT 10SM CLR 11/M03 A3011 RMK AO2 SLP204 T01111028 10189 20111 51018
KMHS 230456Z AUTO 03004KT 10SM CLR 12/M03 A3011 RMK AO2 SLP204 T01171033
KMHS 230356Z AUTO 36007KT 310V030 10SM CLR 13/M04 A3008 RMK AO2 SLP194 T01331039
KMHS 230256Z AUTO VRB03KT 10SM CLR 14/M04 A3005 RMK AO2 SLP186 T01441044 53001
KMHS 230156Z AUTO VRB05KT 10SM CLR 17/M04 A3004 RMK AO2 SLP180 T01721039
KMHS 230056Z AUTO 30011G14KT 10SM CLR 19/M04 A3004 RMK AO2 SLP179 T01891039
KMHS 222356Z AUTO 30009G17KT 260V330 10SM CLR 18/M03 A3005 RMK AO2 SLP182 T01831028 10206 20128 56014
KMHS 222256Z AUTO 32007G17KT 10SM CLR 19/M07 A3006 RMK AO2 SLP183 T01941067
KMHS 222156Z AUTO VRB06G16KT 10SM CLR 19/M04 A3008 RMK AO2 SLP190 T01941039
KMHS 222056Z AUTO VRB06G17KT 10SM CLR 18/M03 A3010 RMK AO2 SLP195 T01781033 58016
KMHS 221956Z AUTO 10SM CLR 17/01 A3011 RMK AO2 SLP202 T01720006
KMHS 221856Z AUTO VRB06G14KT 10SM CLR 16/03 A3013 RMK AO2 SLP208 T01560028
KMHS 221756Z AUTO 32008G17KT 290V360 10SM CLR 13/03 A3015 RMK AO2 SLP216 T01280028 10133 20050 58005
KMHS 221656Z AUTO VRB05KT 10SM CLR 11/02 A3015 RMK AO2 SLP217 T01110022
KMHS 221556Z AUTO VRB06KT 10SM CLR 10/02 A3017 RMK AO2 SLP223 T01000017
KMHS 221456Z AUTO 10SM CLR 08/01 A3016 RMK AO2 SLP222 T00780011 53005
KMHS 221356Z AUTO VRB04KT 10SM CLR 06/01 A3016 RMK AO2 SLP220 T00560006
KMHS 221256Z AUTO 00000KT 10SM CLR 06/01 A3015 RMK AO2 SLP215 T00560011
KMHS 221156Z AUTO VRB05KT 10SM CLR 06/01 A3015 RMK AO2 SLP211 T00610011 10117 20044 56005
KMHS 221056Z AUTO 00000KT 10SM CLR 07/02 A3015 RMK AO2 SLP210 T00670017
KMHS 220956Z AUTO 00000KT 10SM CLR 07/02 A3016 RMK AO2 SLP214 T00670017
KMHS 220856Z AUTO VRB04KT 10SM CLR 08/02 A3017 RMK AO2 SLP217 T00830022 56001
KMHS 220756Z AUTO 10SM CLR 09/02 A3017 RMK AO2 SLP218 T00940022 402220078